createdAt,value
2022-11-13T00:02:21.947Z,14.40
2022-11-13T00:05:11.783Z,14.63
2022-11-13T00:08:01.469Z,14.40
2022-11-13T00:10:51.779Z,13.09
2022-11-13T00:13:41.112Z,12.30
2022-11-13T00:16:30.534Z,13.13
2022-11-13T00:19:19.962Z,13.89
2022-11-13T00:22:09.741Z,14.30
2022-11-13T00:24:59.113Z,14.60
2022-11-13T00:27:48.900Z,14.39
2022-11-13T00:30:38.278Z,13.13
2022-11-13T00:33:55.095Z,12.03
2022-11-13T00:36:37.276Z,11.71
2022-11-13T00:39:27.189Z,12.77
2022-11-13T00:42:17.040Z,13.55
2022-11-13T00:45:09.382Z,13.91
2022-11-13T00:47:58.899Z,14.26
2022-11-13T00:50:48.479Z,14.52
2022-11-13T00:53:38.309Z,14.67
2022-11-13T00:56:28.115Z,14.44
2022-11-13T00:59:17.282Z,13.11
2022-11-13T01:02:06.790Z,12.00
2022-11-13T01:04:56.059Z,11.61
2022-11-13T01:07:45.598Z,12.72
2022-11-13T01:10:35.766Z,13.60
2022-11-13T01:13:25.231Z,14.01
2022-11-13T01:16:15.464Z,14.06
2022-11-13T01:19:05.093Z,14.22
2022-11-13T01:21:54.573Z,14.00
2022-11-13T01:24:43.849Z,12.79
2022-11-13T01:27:33.006Z,12.07
2022-11-13T01:30:22.167Z,12.89
2022-11-13T01:33:12.180Z,13.52
2022-11-13T01:36:05.766Z,13.70
2022-11-13T01:38:53.861Z,13.87
2022-11-13T01:41:43.566Z,14.10
2022-11-13T01:44:46.884Z,14.35
2022-11-13T01:47:37.434Z,14.13
2022-11-13T01:50:27.431Z,12.80
2022-11-13T01:53:17.098Z,11.81
2022-11-13T01:56:07.719Z,12.43
2022-11-13T01:58:59.859Z,13.20
2022-11-13T02:01:49.833Z,13.64
2022-11-13T02:04:39.196Z,13.92
2022-11-13T02:07:28.657Z,14.26
2022-11-13T02:10:18.853Z,14.18
2022-11-13T02:13:08.315Z,12.94
2022-11-13T02:15:58.036Z,12.09
2022-11-13T02:18:47.877Z,12.85
2022-11-13T02:21:39.732Z,13.65
2022-11-13T02:24:32.646Z,13.99
2022-11-13T02:27:30.727Z,14.24
2022-11-13T02:30:26.491Z,14.13
2022-11-13T02:33:23.086Z,12.92
2022-11-13T02:36:13.074Z,11.95
2022-11-13T02:39:04.520Z,12.63
2022-11-13T02:41:54.272Z,13.34
2022-11-13T02:44:43.640Z,13.91
2022-11-13T02:47:32.711Z,14.20
2022-11-13T02:50:23.007Z,14.36
2022-11-13T02:53:12.287Z,14.17
2022-11-13T02:56:01.643Z,12.93
2022-11-13T02:58:50.801Z,11.81
2022-11-13T03:01:40.121Z,11.45
2022-11-13T03:04:50.161Z,12.52
2022-11-13T03:07:39.387Z,13.47
2022-11-13T03:10:28.756Z,13.90
2022-11-13T03:13:17.943Z,14.16
2022-11-13T03:16:12.268Z,13.56
2022-11-13T03:19:01.307Z,12.23
2022-11-13T03:21:50.530Z,11.61
2022-11-13T03:24:40.146Z,12.44
2022-11-13T03:27:31.436Z,13.29
2022-11-13T03:30:21.510Z,13.60
2022-11-13T03:33:10.679Z,13.77
2022-11-13T03:36:00.206Z,14.10
2022-11-13T03:38:49.213Z,14.36
2022-11-13T03:41:38.796Z,13.88
2022-11-13T03:44:28.075Z,12.52
2022-11-13T03:47:17.572Z,11.77
2022-11-13T03:50:07.412Z,12.56
2022-11-13T03:52:57.096Z,13.26
2022-11-13T03:55:47.788Z,13.57
2022-11-13T03:58:40.080Z,13.87
2022-11-13T04:01:30.089Z,14.13
2022-11-13T04:04:20.096Z,14.30
2022-11-13T04:07:09.128Z,14.00
2022-11-13T04:09:58.874Z,12.69
2022-11-13T04:12:48.517Z,11.63
2022-11-13T04:15:37.937Z,11.22
2022-11-13T04:18:27.063Z,12.21
2022-11-13T04:21:17.337Z,12.98
2022-11-13T04:24:07.118Z,13.51
2022-11-13T04:26:56.697Z,13.85
2022-11-13T04:29:45.756Z,14.10
2022-11-13T04:32:35.351Z,14.34
2022-11-13T04:35:24.964Z,14.08
2022-11-13T04:38:14.690Z,12.70
2022-11-13T04:41:30.168Z,11.83
2022-11-13T04:44:19.436Z,12.60
2022-11-13T04:47:09.252Z,13.34
2022-11-13T04:49:58.689Z,13.82
2022-11-13T04:52:49.200Z,13.91
2022-11-13T04:55:38.654Z,13.61
2022-11-13T04:58:28.308Z,12.25
2022-11-13T05:01:17.971Z,11.54
2022-11-13T05:04:07.721Z,12.35
2022-11-13T05:06:56.693Z,13.11
2022-11-13T05:09:46.254Z,13.55
2022-11-13T05:12:37.026Z,13.83
2022-11-13T05:15:26.711Z,14.04
2022-11-13T05:18:15.775Z,14.08
2022-11-13T05:21:05.340Z,12.84
2022-11-13T05:23:54.858Z,11.56
2022-11-13T05:26:44.278Z,11.88
2022-11-13T05:29:33.857Z,12.77
2022-11-13T05:32:23.434Z,13.35
2022-11-13T05:35:12.703Z,13.58
2022-11-13T05:38:03.130Z,13.76
2022-11-13T05:40:52.602Z,13.93
2022-11-13T05:43:42.543Z,13.74
2022-11-13T05:46:32.199Z,12.38
2022-11-13T05:49:21.421Z,11.59
2022-11-13T05:52:10.350Z,12.46
2022-11-13T05:54:59.931Z,13.20
2022-11-13T05:57:49.209Z,13.58
2022-11-13T06:00:38.900Z,13.78
2022-11-13T06:03:28.250Z,13.97
2022-11-13T06:06:18.739Z,13.58
2022-11-13T06:09:08.347Z,12.26
2022-11-13T06:11:57.990Z,11.18
2022-11-13T06:14:47.256Z,10.79
2022-11-13T06:17:36.933Z,11.84
2022-11-13T06:20:26.342Z,12.66
2022-11-13T06:23:15.691Z,13.23
2022-11-13T06:26:06.171Z,13.57
2022-11-13T06:28:55.662Z,13.80
2022-11-13T06:31:44.722Z,13.98
2022-11-13T06:34:34.005Z,13.80
2022-11-13T06:37:23.496Z,12.61
2022-11-13T06:40:14.418Z,11.73
2022-11-13T06:43:03.653Z,12.05
2022-11-13T06:45:53.422Z,12.67
2022-11-13T06:48:43.224Z,13.13
2022-11-13T06:51:33.062Z,13.32
2022-11-13T06:54:21.977Z,13.58
2022-11-13T06:57:11.797Z,13.83
2022-11-13T07:00:01.069Z,13.90
2022-11-13T07:02:51.290Z,14.03
2022-11-13T07:05:40.740Z,13.05
2022-11-13T07:08:30.697Z,11.69
2022-11-13T07:11:20.915Z,11.21
2022-11-13T07:14:12.573Z,12.19
2022-11-13T07:17:10.387Z,12.98
2022-11-13T07:20:00.695Z,13.52
2022-11-13T07:22:50.160Z,13.71
2022-11-13T07:25:39.361Z,13.97
2022-11-13T07:28:28.787Z,13.73
2022-11-13T07:31:19.423Z,12.45
2022-11-13T07:34:08.598Z,11.38
2022-11-13T07:37:00.350Z,11.45
2022-11-13T07:39:49.388Z,12.34
2022-11-13T07:42:39.228Z,12.93
2022-11-13T07:45:29.356Z,13.30
2022-11-13T07:48:18.822Z,13.59
2022-11-13T07:51:07.749Z,13.80
2022-11-13T07:53:57.891Z,13.79
2022-11-13T07:56:48.645Z,12.65
2022-11-13T07:59:38.547Z,11.47
2022-11-13T08:02:27.789Z,11.07
2022-11-13T08:05:17.923Z,12.03
2022-11-13T08:08:07.911Z,12.67
2022-11-13T08:10:58.383Z,13.06
2022-11-13T08:13:49.177Z,13.45
2022-11-13T08:16:39.074Z,13.65
2022-11-13T08:19:28.045Z,13.71
2022-11-13T08:22:17.882Z,13.83
2022-11-13T08:25:06.915Z,14.09
2022-11-13T08:27:57.560Z,13.77
2022-11-13T08:30:47.333Z,12.56
2022-11-13T08:33:36.904Z,11.93
2022-11-13T08:36:25.863Z,12.68
2022-11-13T08:39:15.633Z,13.17
2022-11-13T08:42:05.113Z,13.49
2022-11-13T08:44:55.716Z,13.77
2022-11-13T08:47:45.080Z,13.94
2022-11-13T08:50:35.680Z,13.95
2022-11-13T08:53:25.251Z,12.93
2022-11-13T08:56:15.238Z,12.09
2022-11-13T08:59:04.406Z,12.84
2022-11-13T09:01:58.686Z,13.47
2022-11-13T09:04:48.028Z,13.75
2022-11-13T09:07:37.938Z,13.77
2022-11-13T09:10:27.451Z,13.93
2022-11-13T09:13:17.499Z,13.83
2022-11-13T09:16:07.053Z,12.54
2022-11-13T09:18:56.679Z,11.84
2022-11-13T09:21:47.758Z,12.62
2022-11-13T09:24:37.263Z,13.45
2022-11-13T09:27:26.298Z,13.66
2022-11-13T09:30:16.617Z,13.77
2022-11-13T09:33:05.549Z,13.90
2022-11-13T09:35:55.340Z,13.53
2022-11-13T09:38:44.602Z,12.21
2022-11-13T09:41:36.348Z,11.64
2022-11-13T09:44:30.296Z,12.63
2022-11-13T09:47:21.712Z,13.08
2022-11-13T09:50:15.182Z,13.23
2022-11-13T09:53:05.291Z,13.48
2022-11-13T09:55:58.218Z,13.77
2022-11-13T09:58:49.802Z,13.98
2022-11-13T10:01:43.822Z,13.82
2022-11-13T10:04:42.100Z,12.43
2022-11-13T10:07:36.032Z,11.81
2022-11-13T10:10:48.197Z,12.52
2022-11-13T10:13:43.795Z,13.36
2022-11-13T10:16:36.137Z,13.72
2022-11-13T10:19:28.472Z,13.81
2022-11-13T10:22:36.572Z,13.95
2022-11-13T10:25:28.138Z,14.24
2022-11-13T10:28:48.760Z,14.05
2022-11-13T10:31:27.838Z,12.80
2022-11-13T10:34:18.179Z,12.09
2022-11-13T10:37:18.421Z,12.93
2022-11-13T10:40:08.848Z,13.89
2022-11-13T10:43:05.800Z,13.97
2022-11-13T10:45:59.260Z,12.88
2022-11-13T10:48:48.435Z,12.06
2022-11-13T10:51:39.637Z,12.77
2022-11-13T10:54:29.746Z,13.46
2022-11-13T10:57:26.168Z,13.80
2022-11-13T11:00:25.828Z,13.99
2022-11-13T11:03:19.456Z,14.23
2022-11-13T11:06:08.819Z,13.52
2022-11-13T11:09:06.213Z,12.36
2022-11-13T11:12:22.033Z,11.96
2022-11-13T11:15:20.280Z,13.18
2022-11-13T11:18:15.534Z,13.93
2022-11-13T11:21:09.059Z,14.48
2022-11-13T11:24:01.561Z,13.64
2022-11-13T11:26:54.687Z,12.55
2022-11-13T11:29:47.592Z,12.74
2022-11-13T11:32:40.161Z,13.67
2022-11-13T11:35:33.997Z,14.35
2022-11-13T11:38:28.667Z,14.63
2022-11-13T11:41:20.207Z,14.29
2022-11-13T11:44:16.075Z,13.13
2022-11-13T11:47:05.092Z,13.01
2022-11-13T11:49:54.631Z,13.88
2022-11-13T11:52:48.583Z,14.56
2022-11-13T11:55:44.475Z,14.52
2022-11-13T11:58:41.486Z,13.28
2022-11-13T12:01:36.736Z,12.73
2022-11-13T12:04:33.910Z,13.59
2022-11-13T12:07:30.146Z,14.28
2022-11-13T12:10:25.704Z,14.77
2022-11-13T12:13:21.225Z,14.58
2022-11-13T12:16:14.607Z,13.33
2022-11-13T12:19:06.117Z,12.37
2022-11-13T12:22:00.579Z,12.44
2022-11-13T12:24:59.890Z,13.59
2022-11-13T12:27:54.429Z,14.51
2022-11-13T12:30:47.947Z,13.68
2022-11-13T12:33:40.306Z,12.29
2022-11-13T12:36:30.193Z,11.89
2022-11-13T12:39:29.917Z,12.85
2022-11-13T12:42:21.472Z,13.68
2022-11-13T12:45:15.365Z,14.11
2022-11-13T12:48:11.074Z,14.34
2022-11-13T12:51:01.679Z,14.51
2022-11-13T12:53:52.363Z,13.55
2022-11-13T12:56:41.283Z,12.54
2022-11-13T12:59:34.888Z,12.93
2022-11-13T13:02:31.140Z,13.74
2022-11-13T13:05:25.114Z,14.13
2022-11-13T13:08:12.892Z,14.43
2022-11-13T13:11:11.702Z,13.50
2022-11-13T13:14:10.485Z,12.47
2022-11-13T13:17:07.779Z,12.56
2022-11-13T13:20:00.987Z,13.56
2022-11-13T13:22:58.172Z,14.21
2022-11-13T13:25:47.612Z,14.44
2022-11-13T13:28:40.194Z,13.41
2022-11-13T13:31:37.511Z,12.59
2022-11-13T13:34:35.092Z,13.35
2022-11-13T13:37:30.622Z,14.09
2022-11-13T13:40:28.789Z,14.38
2022-11-13T13:43:24.831Z,13.94
2022-11-13T13:46:16.476Z,12.67
2022-11-13T13:49:06.189Z,12.81
2022-11-13T13:51:57.002Z,13.37
2022-11-13T13:54:46.775Z,13.88
2022-11-13T13:57:41.586Z,14.27
2022-11-13T14:00:30.545Z,14.43
2022-11-13T14:03:21.842Z,13.72
2022-11-13T14:06:11.761Z,12.51
2022-11-13T14:09:09.853Z,12.32
2022-11-13T14:12:00.746Z,13.30
2022-11-13T14:14:51.127Z,13.86
2022-11-13T14:17:40.962Z,14.13
2022-11-13T14:20:30.919Z,14.44
2022-11-13T14:23:21.675Z,14.25
2022-11-13T14:26:12.221Z,12.89
2022-11-13T14:29:02.360Z,12.25
2022-11-13T14:31:52.368Z,12.80
2022-11-13T14:34:44.472Z,13.34
2022-11-13T14:37:35.274Z,13.66
2022-11-13T14:40:26.438Z,14.01
2022-11-13T14:43:18.527Z,14.28
2022-11-13T14:46:23.967Z,13.77
2022-11-13T14:49:15.662Z,12.43
2022-11-13T14:52:07.180Z,11.85
2022-11-13T14:55:15.757Z,12.53
2022-11-13T14:58:05.616Z,12.99
2022-11-13T15:00:58.261Z,13.46
2022-11-13T15:03:48.026Z,13.84
2022-11-13T15:06:40.592Z,14.04
2022-11-13T15:09:31.062Z,13.75
2022-11-13T15:12:20.924Z,12.52
2022-11-13T15:15:14.542Z,11.73
2022-11-13T15:18:04.249Z,12.38
2022-11-13T15:20:53.173Z,12.93
2022-11-13T15:23:42.588Z,13.37
2022-11-13T15:26:31.783Z,13.35
2022-11-13T15:29:21.788Z,13.49
2022-11-13T15:32:12.434Z,13.56
2022-11-13T15:35:02.281Z,13.52
2022-11-13T15:37:51.270Z,13.31
2022-11-13T15:40:41.013Z,13.35
2022-11-13T15:43:30.674Z,13.61
2022-11-13T15:46:21.084Z,13.66
2022-11-13T15:49:10.357Z,13.86
2022-11-13T15:51:59.701Z,13.62
2022-11-13T15:54:48.479Z,12.45
2022-11-13T15:57:39.131Z,11.70
2022-11-13T16:00:29.684Z,12.41
2022-11-13T16:03:19.867Z,12.95
2022-11-13T16:06:12.333Z,12.88
2022-11-13T16:09:02.230Z,13.10
2022-11-13T16:11:51.555Z,13.31
2022-11-13T16:14:40.769Z,13.38
2022-11-13T16:17:30.007Z,13.45
2022-11-13T16:20:19.994Z,13.61
2022-11-13T16:23:15.444Z,13.46
2022-11-13T16:26:05.757Z,13.55
2022-11-13T16:32:05.904Z,13.50
2022-11-13T16:34:55.046Z,13.53
2022-11-13T16:37:44.762Z,13.76
2022-11-13T16:40:34.030Z,13.58
2022-11-13T16:43:24.112Z,13.51
2022-11-13T16:46:20.624Z,13.69
2022-11-13T16:49:17.196Z,13.94
2022-11-13T16:52:06.347Z,14.03
2022-11-13T16:54:57.721Z,14.23
2022-11-13T16:57:49.090Z,14.04
2022-11-13T17:00:38.978Z,12.73
2022-11-13T17:03:28.102Z,12.05
2022-11-13T17:06:23.181Z,12.70
2022-11-13T17:09:11.649Z,13.26
2022-11-13T17:12:01.346Z,13.53
2022-11-13T17:14:50.440Z,13.77
2022-11-13T17:17:40.829Z,13.78
2022-11-13T17:20:31.070Z,13.78
2022-11-13T17:23:20.596Z,13.82
2022-11-13T17:26:10.025Z,13.62
2022-11-13T17:29:02.164Z,13.66
2022-11-13T17:31:51.153Z,13.53
2022-11-13T17:34:40.428Z,13.50
2022-11-13T17:37:29.423Z,13.46
2022-11-13T17:40:19.373Z,13.29
2022-11-13T17:43:09.967Z,13.53
2022-11-13T17:46:00.049Z,13.77
2022-11-13T17:48:49.125Z,13.97
2022-11-13T17:51:38.985Z,14.08
2022-11-13T17:54:29.391Z,13.92
2022-11-13T17:57:21.596Z,12.83
2022-11-13T18:00:15.465Z,11.99
2022-11-13T18:03:05.102Z,12.56
2022-11-13T18:05:53.729Z,13.03
2022-11-13T18:08:44.139Z,13.37
2022-11-13T18:11:32.992Z,13.53
2022-11-13T18:14:22.764Z,13.75
2022-11-13T18:17:12.117Z,13.74
2022-11-13T18:20:02.289Z,13.68
2022-11-13T18:22:51.693Z,13.67
2022-11-13T18:25:41.402Z,13.78
2022-11-13T18:28:30.739Z,13.87
2022-11-13T18:31:20.928Z,13.89
2022-11-13T18:34:13.062Z,13.90
2022-11-13T18:37:02.469Z,13.86
2022-11-13T18:39:51.585Z,13.93
2022-11-13T18:42:41.426Z,13.85
2022-11-13T18:45:30.444Z,13.78
2022-11-13T18:48:20.024Z,13.80
2022-11-13T18:51:11.133Z,13.82
2022-11-13T18:54:05.454Z,13.63
2022-11-13T18:56:57.957Z,13.72
2022-11-13T18:59:47.462Z,13.55
2022-11-13T19:02:36.498Z,13.77
2022-11-13T19:05:27.394Z,13.77
2022-11-13T19:08:16.991Z,13.92
2022-11-13T19:11:07.721Z,12.79
2022-11-13T19:13:57.090Z,11.63
2022-11-13T19:16:47.239Z,12.15
2022-11-13T19:19:36.669Z,12.60
2022-11-13T19:22:26.182Z,12.89
2022-11-13T19:25:15.290Z,13.08
2022-11-13T19:28:05.427Z,13.22
2022-11-13T19:30:55.624Z,13.39
2022-11-13T19:33:46.184Z,13.55
2022-11-13T19:36:36.312Z,13.66
2022-11-13T19:39:26.372Z,13.61
2022-11-13T19:42:15.557Z,13.48
2022-11-13T19:45:05.187Z,13.63
2022-11-13T19:47:54.546Z,13.47
2022-11-13T19:50:47.461Z,13.41
2022-11-13T19:53:37.039Z,13.41
2022-11-13T19:56:28.659Z,13.43
2022-11-13T19:59:17.714Z,13.37
2022-11-13T20:02:07.647Z,13.42
2022-11-13T20:04:56.861Z,13.55
2022-11-13T20:07:46.273Z,13.49
2022-11-13T20:10:35.501Z,13.63
2022-11-13T20:13:25.323Z,13.65
2022-11-13T20:16:15.988Z,13.68
2022-11-13T20:19:05.787Z,13.66
2022-11-13T20:21:56.280Z,13.66
2022-11-13T20:24:45.970Z,13.75
2022-11-13T20:27:37.237Z,13.67
2022-11-13T20:30:27.388Z,13.62
2022-11-13T20:33:22.165Z,13.46
2022-11-13T20:36:12.603Z,13.52
2022-11-13T20:39:04.431Z,13.47
2022-11-13T20:41:58.192Z,13.61
2022-11-13T20:44:47.004Z,13.43
2022-11-13T20:47:36.679Z,13.50
2022-11-13T20:50:25.831Z,13.35
2022-11-13T20:53:15.398Z,13.54
2022-11-13T20:56:05.079Z,13.54
2022-11-13T20:58:54.805Z,13.36
2022-11-13T21:01:44.012Z,13.46
2022-11-13T21:04:34.520Z,13.50
2022-11-13T21:07:23.746Z,13.50
2022-11-13T21:10:13.459Z,13.58
2022-11-13T21:13:02.775Z,13.49
2022-11-13T21:15:52.726Z,13.51
2022-11-13T21:18:41.981Z,13.51
2022-11-13T21:21:32.171Z,13.52
2022-11-13T21:24:21.387Z,13.26
2022-11-13T21:27:11.161Z,13.21
2022-11-13T21:30:00.538Z,13.38
2022-11-13T21:32:50.338Z,13.40
2022-11-13T21:35:39.431Z,13.33
2022-11-13T21:38:29.252Z,13.19
2022-11-13T21:41:25.235Z,13.08
2022-11-13T21:44:15.340Z,13.09
2022-11-13T21:47:04.740Z,13.16
2022-11-13T21:49:54.845Z,13.18
2022-11-13T21:52:43.841Z,13.29
2022-11-13T21:55:33.623Z,13.17
2022-11-13T21:58:32.069Z,13.34
2022-11-13T22:01:23.625Z,13.31
2022-11-13T22:04:12.998Z,13.48
2022-11-13T22:07:02.971Z,13.46
2022-11-13T22:09:52.247Z,13.57
2022-11-13T22:12:41.781Z,13.43
2022-11-13T22:15:31.225Z,13.24
2022-11-13T22:18:21.186Z,13.20
2022-11-13T22:30:22.893Z,13.15
2022-11-13T22:33:11.748Z,12.11
2022-11-13T22:36:04.749Z,12.31
2022-11-13T22:38:54.188Z,12.79
2022-11-13T22:41:44.272Z,13.13
2022-11-13T22:44:54.405Z,13.35
2022-11-13T22:47:42.972Z,13.47
2022-11-13T22:50:32.146Z,13.20
2022-11-13T22:53:21.817Z,13.29
2022-11-13T22:56:13.048Z,13.37
2022-11-13T22:59:02.829Z,13.40
2022-11-13T23:01:52.076Z,13.40
2022-11-13T23:04:41.997Z,13.51
2022-11-13T23:07:31.473Z,13.56
2022-11-13T23:10:21.067Z,13.58
2022-11-13T23:13:10.576Z,13.63
2022-11-13T23:16:00.579Z,13.58
2022-11-13T23:18:50.598Z,13.38
2022-11-13T23:21:40.533Z,13.54
2022-11-13T23:24:29.855Z,13.42
2022-11-13T23:27:19.209Z,13.33
2022-11-13T23:30:09.886Z,13.63
2022-11-13T23:32:59.865Z,13.71
2022-11-13T23:35:49.123Z,13.71
2022-11-13T23:38:38.021Z,13.84
2022-11-13T23:41:27.419Z,13.99
2022-11-13T23:44:17.025Z,14.02
2022-11-13T23:47:06.496Z,13.86
2022-11-13T23:49:55.970Z,13.43
2022-11-13T23:52:45.346Z,13.26
2022-11-13T23:55:35.424Z,13.40
2022-11-13T23:58:24.487Z,13.50
